Time;durP1;ratioP1;P1;durP2;ratioP2;P2;SDS_P1;SDS_P2;PMS_P1;PMS_P2;Temp;Humidity;BMP_temperature;BMP_pressure;BME280_temperature;BME280_humidity;BME280_pressure;Samples;Min_cycle;Max_cycle;Signal;HPM_P1;HPM_P2
2024/01/22 00:00:17;;;;;;;5.97;3.10;;;5.90;99.90;;;;;;5007114;28;20382;-65
2024/01/22 00:02:44;;;;;;;5.87;3.30;;;5.90;99.90;;;;;;5013380;28;20208;-65
2024/01/22 00:05:11;;;;;;;5.67;3.13;;;6.00;99.90;;;;;;5017096;28;20200;-65
2024/01/22 00:07:39;;;;;;;3.47;2.60;;;5.90;99.90;;;;;;4993508;28;20593;-65
2024/01/22 00:10:07;;;;;;;4.80;2.67;;;6.00;99.90;;;;;;5019324;28;20406;-65
2024/01/22 00:12:34;;;;;;;3.53;2.47;;;5.10;99.90;;;;;;5007301;28;20713;-65
2024/01/22 00:15:01;;;;;;;3.87;2.53;;;6.10;99.90;;;;;;4980189;28;21127;-65
2024/01/22 00:17:28;;;;;;;5.40;2.57;;;6.10;99.90;;;;;;5020453;28;20671;-65
2024/01/22 00:19:55;;;;;;;5.37;2.63;;;6.10;99.90;;;;;;5016271;28;20197;-65
2024/01/22 00:22:22;;;;;;;6.83;2.80;;;6.90;99.90;;;;;;4976955;28;20210;-65
2024/01/22 00:24:50;;;;;;;4.77;2.80;;;6.20;99.90;;;;;;4999454;28;20285;-65
2024/01/22 00:27:17;;;;;;;3.93;2.43;;;6.20;99.90;;;;;;4998269;28;20241;-65
2024/01/22 00:29:44;;;;;;;4.67;2.30;;;6.30;99.90;;;;;;4965511;28;20215;-65
2024/01/22 00:32:11;;;;;;;5.97;2.70;;;6.40;99.90;;;;;;4980297;28;20760;-65
2024/01/22 00:34:38;;;;;;;4.00;2.40;;;;;;;;;;4994666;28;20213;-65
2024/01/22 00:37:05;;;;;;;7.90;2.77;;;6.40;99.90;;;;;;4982235;28;20404;-65
2024/01/22 00:39:32;;;;;;;5.63;2.53;;;6.40;99.90;;;;;;4987420;28;20228;-65
2024/01/22 00:42:00;;;;;;;4.10;2.70;;;6.40;99.90;;;;;;4994400;28;20849;-65
2024/01/22 00:44:27;;;;;;;5.73;2.57;;;6.40;99.90;;;;;;4961420;28;20226;-65
2024/01/22 00:46:54;;;;;;;4.33;2.60;;;6.50;99.90;;;;;;4980054;28;20596;-65
2024/01/22 00:49:20;;;;;;;5.00;2.40;;;6.50;99.90;;;;;;4997250;28;20204;-65
2024/01/22 00:51:47;;;;;;;4.23;2.30;;;6.60;99.90;;;;;;4984339;28;20225;-65
2024/01/22 00:54:14;;;;;;;4.87;2.47;;;6.60;99.90;;;;;;4996762;28;20762;-65
2024/01/22 00:56:41;;;;;;;6.00;2.50;;;6.70;99.90;;;;;;4997824;28;20690;-65
2024/01/22 00:59:09;;;;;;;5.40;2.43;;;6.70;99.90;;;;;;4999274;28;20695;-65
2024/01/22 01:01:36;;;;;;;5.53;2.17;;;6.70;99.90;;;;;;4963177;28;20214;-66
2024/01/22 01:04:03;;;;;;;5.07;2.37;;;6.70;99.90;;;;;;4992390;28;20206;-66
2024/01/22 01:06:31;;;;;;;3.37;2.10;;;6.70;99.90;;;;;;4995534;28;20222;-65
2024/01/22 01:08:58;;;;;;;4.13;2.20;;;3.60;99.90;;;;;;4975643;28;20225;-65
2024/01/22 01:11:24;;;;;;;2.67;2.07;;;6.90;99.90;;;;;;5000194;28;20763;-66
2024/01/22 01:13:52;;;;;;;6.13;2.47;;;6.90;99.90;;;;;;4996794;28;21177;-65
2024/01/22 01:16:20;;;;;;;3.40;2.13;;;6.90;99.90;;;;;;4963930;28;20894;-65
2024/01/22 01:18:47;;;;;;;3.63;2.07;;;6.90;99.90;;;;;;4989197;28;20198;-65
2024/01/22 01:21:14;;;;;;;4.50;2.47;;;6.90;99.90;;;;;;4995118;28;20964;-66
2024/01/22 01:23:41;;;;;;;5.13;1.93;;;6.90;99.90;;;;;;4989146;28;20210;-65
2024/01/22 01:26:07;;;;;;;1.83;1.63;;;6.90;99.90;;;;;;4989135;28;20221;-65
2024/01/22 01:28:34;;;;;;;3.43;2.00;;;6.90;99.90;;;;;;5000390;28;20199;-66
2024/01/22 01:31:00;;;;;;;7.57;2.33;;;7.10;99.90;;;;;;4965880;28;20214;-65
2024/01/22 01:33:28;;;;;;;4.67;2.27;;;7.00;99.90;;;;;;4986542;28;20306;-65
2024/01/22 01:35:55;;;;;;;9.87;2.10;;;7.10;99.90;;;;;;4994863;28;20202;-66
2024/01/22 01:38:22;;;;;;;3.20;1.87;;;7.10;99.90;;;;;;4986732;28;20204;-65
2024/01/22 01:40:49;;;;;;;4.27;2.10;;;7.10;99.90;;;;;;4994042;28;20388;-64
2024/01/22 01:43:16;;;;;;;3.13;1.87;;;7.10;99.90;;;;;;4996703;28;20261;-65
2024/01/22 01:45:43;;;;;;;5.93;2.10;;;6.60;99.90;;;;;;4961210;28;22233;-65
2024/01/22 01:48:11;;;;;;;6.67;2.23;;;7.10;99.90;;;;;;4985467;28;20199;-65
2024/01/22 01:50:39;;;;;;;6.47;2.43;;;7.20;99.90;;;;;;4997658;28;20377;-65
2024/01/22 01:53:07;;;;;;;4.03;1.70;;;7.20;99.90;;;;;;4997334;28;20195;-65
2024/01/22 01:55:36;;;;;;;9.40;1.97;;;7.80;99.90;;;;;;4973064;28;20734;-65
2024/01/22 01:58:04;;;;;;;3.63;1.70;;;7.20;99.90;;;;;;4996740;28;20201;-66
2024/01/22 02:00:31;;;;;;;3.80;2.10;;;7.20;99.90;;;;;;4996345;28;20697;-65
2024/01/22 02:02:58;;;;;;;2.40;2.10;;;7.30;99.90;;;;;;4954528;28;20209;-65
2024/01/22 02:05:25;;;;;;;3.87;2.13;;;7.40;99.90;;;;;;4994990;28;20906;-65
2024/01/22 02:07:53;;;;;;;3.47;1.70;;;7.30;99.90;;;;;;4996495;28;20518;-66
2024/01/22 02:10:20;;;;;;;3.67;1.80;;;7.40;99.90;;;;;;4987965;28;20232;-65
2024/01/22 02:12:47;;;;;;;4.47;2.27;;;7.40;99.90;;;;;;4988893;28;20514;-65
2024/01/22 02:15:14;;;;;;;3.33;2.00;;;7.90;99.90;;;;;;4997046;28;20567;-65
2024/01/22 02:17:41;;;;;;;3.60;1.90;;;7.40;99.90;;;;;;4959515;28;20211;-65
2024/01/22 02:20:09;;;;;;;2.13;1.90;;;7.40;99.90;;;;;;4991230;28;20202;-65
2024/01/22 02:22:36;;;;;;;2.13;1.87;;;7.40;99.90;;;;;;5015423;28;20194;-65
2024/01/22 02:25:05;;;;;;;3.87;2.07;;;7.30;99.90;;;;;;5007231;28;20206;-65
2024/01/22 02:27:33;;;;;;;2.53;1.87;;;;;;;;;;5006530;28;20233;-65
2024/01/22 02:29:59;;;;;;;3.93;2.10;;;7.40;99.90;;;;;;5018198;28;20208;-65
2024/01/22 02:32:26;;;;;;;3.00;1.83;;;7.40;99.90;;;;;;4978533;28;20602;-66
2024/01/22 02:34:53;;;;;;;3.50;2.00;;;7.40;99.90;;;;;;5004673;28;20216;-65
2024/01/22 02:37:20;;;;;;;2.57;1.90;;;7.50;99.90;;;;;;5014994;28;20212;-65
2024/01/22 02:39:47;;;;;;;3.07;2.00;;;7.50;99.90;;;;;;5000383;28;21182;-66
2024/01/22 02:42:15;;;;;;;3.10;1.80;;;7.50;99.90;;;;;;5013196;28;20726;-65
2024/01/22 02:44:42;;;;;;;2.17;1.90;;;7.50;99.90;;;;;;5004581;28;20222;-65
2024/01/22 02:47:09;;;;;;;4.60;2.10;;;7.60;99.90;;;;;;5013341;28;20234;-65
2024/01/22 02:49:36;;;;;;;4.20;1.80;;;7.60;99.90;;;;;;4973351;28;20421;-65
2024/01/22 02:52:03;;;;;;;2.57;1.60;;;7.60;99.90;;;;;;5019162;28;20193;-66
2024/01/22 02:54:30;;;;;;;5.67;1.53;;;7.70;99.90;;;;;;5010791;28;20201;-66
2024/01/22 02:56:57;;;;;;;2.53;1.80;;;7.60;99.90;;;;;;5009859;28;20197;-65
2024/01/22 02:59:25;;;;;;;4.27;1.90;;;7.70;99.90;;;;;;5007488;28;20230;-65
2024/01/22 03:01:52;;;;;;;2.40;1.90;;;7.70;99.90;;;;;;5016051;28;20314;-66
2024/01/22 03:04:19;;;;;;;3.23;2.07;;;7.70;99.90;;;;;;4984217;28;20210;-66
2024/01/22 03:06:45;;;;;;;1.73;1.63;;;7.70;99.90;;;;;;5005906;28;20229;-65
2024/01/22 03:09:12;;;;;;;2.57;2.00;;;7.70;99.90;;;;;;5016783;28;20228;-65
2024/01/22 03:11:39;;;;;;;4.53;1.97;;;7.80;99.90;;;;;;5006175;28;20198;-65
2024/01/22 03:14:06;;;;;;;2.27;1.80;;;7.70;99.90;;;;;;5017836;28;20198;-65
2024/01/22 03:16:34;;;;;;;2.30;1.77;;;7.70;99.90;;;;;;5002625;28;20204;-65
2024/01/22 03:19:01;;;;;;;4.73;2.00;;;7.70;99.90;;;;;;5018345;28;20201;-65
2024/01/22 03:21:28;;;;;;;2.23;1.57;;;7.70;99.90;;;;;;4975625;28;20724;-66
2024/01/22 03:23:55;;;;;;;5.80;2.13;;;7.70;99.90;;;;;;5014364;28;20674;-65
2024/01/22 03:26:22;;;;;;;5.63;2.57;;;7.70;99.90;;;;;;5012644;28;20204;-65
2024/01/22 03:28:50;;;;;;;4.30;1.87;;;7.70;99.90;;;;;;5008783;28;20500;-66
2024/01/22 03:31:24;;;;;;;3.23;2.27;;;8.00;99.90;;;;;;4995481;28;20678;-65
2024/01/22 03:33:52;;;;;;;4.23;2.00;;;7.70;99.90;;;;;;5012296;28;22350;-65
2024/01/22 03:36:20;;;;;;;2.13;1.93;;;;;;;;;;4981855;28;20225;-66
2024/01/22 03:38:47;;;;;;;2.20;1.93;;;7.70;99.90;;;;;;5009537;28;20682;-66
2024/01/22 03:41:14;;;;;;;4.07;2.03;;;7.70;99.90;;;;;;5016795;28;20576;-65
2024/01/22 03:43:42;;;;;;;2.50;1.93;;;7.70;99.90;;;;;;5002895;28;20326;-66
2024/01/22 03:46:09;;;;;;;4.67;2.20;;;7.70;99.90;;;;;;5009901;28;20213;-65
2024/01/22 03:48:36;;;;;;;3.83;2.17;;;6.70;99.90;;;;;;5017685;28;20419;-65
2024/01/22 03:51:06;;;;;;;3.03;2.27;;;7.70;99.90;;;;;;4987415;28;20213;-66
2024/01/22 03:53:33;;;;;;;3.70;2.53;;;7.70;99.90;;;;;;5002678;28;20889;-65
2024/01/22 03:56:02;;;;;;;2.77;2.30;;;7.80;99.90;;;;;;5022146;28;20239;-66
2024/01/22 03:58:29;;;;;;;3.87;2.40;;;7.90;99.90;;;;;;5002072;28;20291;-65
2024/01/22 04:00:56;;;;;;;5.53;2.73;;;7.80;99.90;;;;;;5018859;28;20549;-66
2024/01/22 04:03:23;;;;;;;2.53;2.27;;;7.80;99.90;;;;;;5003749;28;20661;-66
2024/01/22 04:05:50;;;;;;;6.63;2.37;;;7.90;99.90;;;;;;5015928;28;20525;-66
2024/01/22 04:08:18;;;;;;;2.20;2.00;;;7.90;99.90;;;;;;4983147;28;22574;-66
2024/01/22 04:10:45;;;;;;;8.17;2.37;;;7.90;99.90;;;;;;5007587;28;20764;-65
2024/01/22 04:13:12;;;;;;;2.47;2.23;;;7.90;99.90;;;;;;5014109;28;20205;-66
2024/01/22 04:15:39;;;;;;;2.93;2.20;;;7.90;99.90;;;;;;5001481;28;20400;-66
2024/01/22 04:18:06;;;;;;;4.03;2.17;;;8.00;99.90;;;;;;5006903;28;21282;-66
2024/01/22 04:20:33;;;;;;;3.43;2.10;;;8.00;99.90;;;;;;5018103;28;20241;-66
2024/01/22 04:23:00;;;;;;;3.07;2.17;;;8.00;99.90;;;;;;4983403;28;20214;-66
2024/01/22 04:25:28;;;;;;;2.73;2.10;;;8.70;99.90;;;;;;5005218;28;20816;-66
2024/01/22 04:27:57;;;;;;;3.77;2.07;;;8.00;99.90;;;;;;5020989;28;20715;-66
2024/01/22 04:30:24;;;;;;;2.60;1.97;;;8.10;99.90;;;;;;5004999;28;20344;-66
2024/01/22 04:32:51;;;;;;;5.60;2.33;;;8.10;99.90;;;;;;5005679;28;20296;-66
2024/01/22 04:35:18;;;;;;;4.47;2.17;;;;;;;;;;5020697;28;20662;-66
2024/01/22 04:37:45;;;;;;;4.27;2.33;;;8.10;99.90;;;;;;4984429;28;20434;-66
2024/01/22 04:40:13;;;;;;;2.40;2.00;;;8.10;99.90;;;;;;5017473;28;20208;-66
2024/01/22 04:42:42;;;;;;;2.43;2.03;;;8.20;99.90;;;;;;5006594;28;20295;-66
2024/01/22 04:45:09;;;;;;;5.57;2.00;;;8.20;99.90;;;;;;5004698;28;20229;-66
2024/01/22 04:47:37;;;;;;;2.83;2.00;;;8.10;99.90;;;;;;5015488;28;20551;-66
2024/01/22 04:50:04;;;;;;;3.20;1.70;;;8.20;99.90;;;;;;5006757;28;20205;-66
2024/01/22 04:52:32;;;;;;;1.83;1.73;;;;;;;;;;4989054;28;20202;-66
2024/01/22 04:54:59;;;;;;;3.80;1.80;;;8.30;99.90;;;;;;5015827;28;20232;-66
2024/01/22 04:57:25;;;;;;;2.80;1.70;;;8.40;99.90;;;;;;5009399;28;20198;-66
2024/01/22 04:59:54;;;;;;;2.03;1.50;;;8.50;99.90;;;;;;4999726;28;20231;-66
2024/01/22 05:02:27;;;;;;;1.70;1.60;;;8.50;99.90;;;;;;5003762;28;20217;-66
2024/01/22 05:04:56;;;;;;;1.73;1.60;;;8.50;99.90;;;;;;5001650;28;20242;-66
2024/01/22 05:07:23;;;;;;;2.07;1.60;;;8.50;99.90;;;;;;5002267;28;20464;-66
2024/01/22 05:09:50;;;;;;;1.90;1.60;;;8.40;99.90;;;;;;4979478;28;20213;-66
2024/01/22 05:12:17;;;;;;;2.80;1.70;;;8.70;99.90;;;;;;5005343;28;20204;-66
2024/01/22 05:14:44;;;;;;;2.10;1.70;;;8.50;99.90;;;;;;5007501;28;20201;-67
2024/01/22 05:17:12;;;;;;;4.30;1.60;;;8.50;99.90;;;;;;5005207;28;20299;-66
2024/01/22 05:19:39;;;;;;;1.93;1.73;;;8.50;99.90;;;;;;5014100;28;20199;-66
2024/01/22 05:22:06;;;;;;;2.03;1.43;;;8.10;99.90;;;;;;4990745;28;24207;-66
2024/01/22 05:24:33;;;;;;;3.07;1.73;;;8.50;99.90;;;;;;4975686;28;20686;-66
2024/01/22 05:26:59;;;;;;;4.17;1.80;;;8.60;99.90;;;;;;5007238;28;20693;-66
2024/01/22 05:29:26;;;;;;;1.60;1.50;;;8.50;99.90;;;;;;5012970;28;20626;-66
2024/01/22 05:31:53;;;;;;;3.00;1.50;;;8.50;99.90;;;;;;4996550;28;20671;-66
2024/01/22 05:34:21;;;;;;;1.50;1.40;;;8.60;99.90;;;;;;5017386;28;20663;-66
2024/01/22 05:36:48;;;;;;;1.70;1.60;;;8.60;99.90;;;;;;5003506;28;20231;-66
2024/01/22 05:39:16;;;;;;;2.55;1.67;;;;;;;;;;5001574;28;20256;-66
2024/01/22 05:41:43;;;;;;;1.50;1.40;;;8.60;99.90;;;;;;4968127;28;20746;-66
2024/01/22 05:44:10;;;;;;;2.40;1.40;;;8.60;99.90;;;;;;5001405;28;20323;-66
2024/01/22 05:46:37;;;;;;;1.93;1.77;;;8.60;99.90;;;;;;4999602;28;20208;-66
2024/01/22 05:49:04;;;;;;;1.70;1.60;;;8.70;99.90;;;;;;5012543;28;21070;-66
2024/01/22 05:51:33;;;;;;;2.03;1.40;;;8.70;99.90;;;;;;4999816;28;20367;-66
2024/01/22 05:54:00;;;;;;;1.50;1.40;;;8.70;99.90;;;;;;4997530;28;20566;-66
2024/01/22 05:56:28;;;;;;;3.60;1.40;;;8.60;99.90;;;;;;4968632;28;20225;-66
2024/01/22 05:58:56;;;;;;;2.27;1.67;;;8.70;99.90;;;;;;4997633;28;20206;-66
2024/01/22 06:01:24;;;;;;;1.60;1.50;;;8.80;99.90;;;;;;4972468;28;20206;-66
2024/01/22 06:03:51;;;;;;;1.57;1.47;;;8.90;99.90;;;;;;5014673;28;20221;-66
2024/01/22 06:06:19;;;;;;;1.40;1.30;;;8.90;99.90;;;;;;4998196;28;20228;-66
2024/01/22 06:08:49;;;;;;;1.77;1.50;;;8.90;99.90;;;;;;4995103;28;20237;-66
2024/01/22 06:11:18;;;;;;;2.42;1.50;;;8.80;99.90;;;;;;4981663;28;20612;-66
2024/01/22 06:13:45;;;;;;;1.50;1.40;;;8.80;99.90;;;;;;4994558;28;20229;-66
2024/01/22 06:16:13;;;;;;;2.27;1.50;;;8.80;99.90;;;;;;5012668;28;20229;-66
2024/01/22 06:18:41;;;;;;;1.70;1.60;;;8.80;99.90;;;;;;4996197;28;21771;-66
2024/01/22 06:21:08;;;;;;;3.75;1.80;;;8.90;99.90;;;;;;5010102;28;20230;-66
2024/01/22 06:23:36;;;;;;;1.70;1.60;;;8.90;99.90;;;;;;5011123;28;20909;-66
2024/01/22 06:26:05;;;;;;;1.93;1.60;;;9.00;99.90;;;;;;5003081;28;20946;-65
2024/01/22 06:28:32;;;;;;;1.58;1.48;;;9.30;99.90;;;;;;4986255;28;20229;-66
2024/01/22 06:30:59;;;;;;;1.55;1.45;;;9.30;99.90;;;;;;5015111;28;20285;-67
2024/01/22 06:33:26;;;;;;;3.33;1.50;;;9.20;99.90;;;;;;5003880;28;20229;-66
2024/01/22 06:35:53;;;;;;;3.58;1.40;;;9.20;99.90;;;;;;5020283;28;20225;-66
2024/01/22 06:38:20;;;;;;;1.63;1.52;;;9.30;99.90;;;;;;5000040;28;20222;-66
2024/01/22 06:40:47;;;;;;;1.40;1.30;;;9.20;99.90;;;;;;4999990;28;21002;-66
2024/01/22 06:43:15;;;;;;;2.13;1.58;;;9.30;99.90;;;;;;4981288;28;20225;-67
2024/01/22 06:45:43;;;;;;;1.75;1.50;;;9.20;99.90;;;;;;5014958;28;20193;-67
2024/01/22 06:48:11;;;;;;;1.70;1.60;;;9.20;99.90;;;;;;5008071;28;20232;-67
2024/01/22 06:50:39;;;;;;;1.42;1.33;;;9.20;99.90;;;;;;5017982;28;20291;-66
2024/01/22 06:53:06;;;;;;;1.30;1.20;;;9.40;99.90;;;;;;4996764;28;20837;-67
2024/01/22 06:55:32;;;;;;;1.25;1.15;;;9.40;99.90;;;;;;5004222;28;20222;-66
2024/01/22 06:58:00;;;;;;;2.42;1.40;;;9.10;99.90;;;;;;4982100;28;20344;-67
2024/01/22 07:00:30;;;;;;;1.65;1.30;;;9.40;99.90;;;;;;5017273;28;20198;-66
2024/01/22 07:02:58;;;;;;;1.80;1.30;;;9.30;99.90;;;;;;5010268;28;20362;-66
2024/01/22 07:05:26;;;;;;;2.75;1.48;;;9.30;99.90;;;;;;5007045;28;20217;-67
2024/01/22 07:07:54;;;;;;;3.20;1.80;;;9.40;99.90;;;;;;5005229;28;20233;-66
2024/01/22 07:10:21;;;;;;;1.67;1.48;;;9.40;99.90;;;;;;5008420;28;20228;-66
2024/01/22 07:12:48;;;;;;;1.50;1.40;;;9.40;99.90;;;;;;4966682;28;20490;-66
2024/01/22 07:15:15;;;;;;;3.47;1.50;;;9.40;99.90;;;;;;5014238;28;20218;-66
2024/01/22 07:17:44;;;;;;;1.85;1.30;;;9.60;99.90;;;;;;5012722;28;20197;-66
2024/01/22 07:20:13;;;;;;;1.42;1.33;;;9.50;99.90;;;;;;5008827;28;20571;-66
2024/01/22 07:22:41;;;;;;;1.48;1.20;;;6.30;99.90;;;;;;5007026;28;20710;-67
2024/01/22 07:25:09;;;;;;;1.38;1.23;;;9.50;99.90;;;;;;5006381;28;20233;-66
2024/01/22 07:27:38;;;;;;;1.27;1.17;;;9.50;99.90;;;;;;5005186;28;20202;-67
2024/01/22 07:30:08;;;;;;;1.50;1.40;;;9.50;99.90;;;;;;4979101;28;20307;-66
2024/01/22 07:32:36;;;;;;;1.30;1.20;;;9.60;99.90;;;;;;5013084;28;20699;-66
2024/01/22 07:35:07;;;;;;;2.03;1.10;;;9.60;99.90;;;;;;5005935;28;20426;-66
2024/01/22 07:37:35;;;;;;;3.22;1.52;;;9.60;99.90;;;;;;5011188;28;20229;-66
2024/01/22 07:40:04;;;;;;;1.73;1.48;;;9.60;99.90;;;;;;4991728;28;20216;-67
2024/01/22 07:42:32;;;;;;;1.30;1.20;;;9.60;99.90;;;;;;5001990;28;20306;-67
2024/01/22 07:44:59;;;;;;;1.05;1.00;;;9.70;99.90;;;;;;4972012;28;20342;-66
2024/01/22 07:47:26;;;;;;;1.25;1.13;;;9.70;99.90;;;;;;5011908;28;20773;-67
2024/01/22 07:49:52;;;;;;;1.30;1.15;;;9.60;99.90;;;;;;4997016;28;20355;-67
2024/01/22 07:52:20;;;;;;;1.17;1.00;;;9.70;99.90;;;;;;4997499;28;20400;-67
2024/01/22 07:54:48;;;;;;;1.20;1.10;;;9.80;99.90;;;;;;4989509;28;20293;-67
2024/01/22 07:57:15;;;;;;;1.20;1.00;;;9.80;99.90;;;;;;4993857;28;20198;-67
2024/01/22 07:59:42;;;;;;;1.70;1.10;;;9.70;99.90;;;;;;4976403;28;20377;-66
2024/01/22 08:02:09;;;;;;;0.80;0.80;;;9.80;99.90;;;;;;5008001;28;20207;-67
2024/01/22 08:04:37;;;;;;;1.45;1.00;;;9.90;99.90;;;;;;4994183;28;20288;-67
2024/01/22 08:07:06;;;;;;;1.30;1.00;;;10.80;99.90;;;;;;4999694;28;20770;-66
2024/01/22 08:09:34;;;;;;;1.17;1.08;;;10.00;99.90;;;;;;5002679;28;20625;-67
2024/01/22 08:12:01;;;;;;;1.92;1.30;;;9.90;99.90;;;;;;5009044;28;20198;-67
2024/01/22 08:14:28;;;;;;;1.17;1.08;;;9.90;99.90;;;;;;4971993;28;20712;-67
2024/01/22 08:16:56;;;;;;;1.20;1.10;;;10.00;99.90;;;;;;5017548;28;20203;-67
2024/01/22 08:19:23;;;;;;;3.33;1.40;;;10.00;99.90;;;;;;5015401;28;20313;-67
2024/01/22 08:21:50;;;;;;;1.92;1.25;;;10.00;99.90;;;;;;5015719;28;20244;-66
2024/01/22 08:24:17;;;;;;;1.77;1.20;;;9.30;99.90;;;;;;5005831;28;20839;-67
2024/01/22 08:26:45;;;;;;;4.03;0.93;;;10.00;99.90;;;;;;5003057;28;20604;-67
2024/01/22 08:29:12;;;;;;;1.25;0.77;;;10.20;99.90;;;;;;5005123;28;20241;-67
2024/01/22 08:31:39;;;;;;;2.63;1.30;;;10.10;99.90;;;;;;4974543;28;20235;-66
2024/01/22 08:34:06;;;;;;;2.88;1.23;;;10.50;99.90;;;;;;5010584;28;20683;-66
2024/01/22 08:36:33;;;;;;;3.13;1.25;;;10.30;99.90;;;;;;5001600;28;20226;-66
2024/01/22 08:39:00;;;;;;;1.42;1.10;;;10.20;99.90;;;;;;5006506;28;20636;-66
2024/01/22 08:41:27;;;;;;;2.85;1.13;;;9.80;99.90;;;;;;5003506;28;20943;-66
2024/01/22 08:43:56;;;;;;;2.33;1.00;;;10.30;99.90;;;;;;5016118;28;20636;-67
2024/01/22 08:46:24;;;;;;;2.28;1.63;;;10.20;99.90;;;;;;4973628;28;20337;-67
2024/01/22 08:48:50;;;;;;;3.03;1.45;;;10.30;99.90;;;;;;5018644;28;20221;-67
2024/01/22 08:51:17;;;;;;;3.55;1.35;;;10.30;99.90;;;;;;5006131;28;20733;-67
2024/01/22 08:53:44;;;;;;;6.32;2.00;;;10.20;99.90;;;;;;5002919;28;20981;-67
2024/01/22 08:56:13;;;;;;;3.47;1.48;;;;;;;;;;4993368;28;21587;-67
2024/01/22 08:58:40;;;;;;;3.83;1.65;;;10.30;99.90;;;;;;5009940;28;20757;-67
2024/01/22 09:01:09;;;;;;;5.95;1.50;;;10.30;99.90;;;;;;4976172;28;20590;-67
2024/01/22 09:03:36;;;;;;;3.83;1.42;;;9.70;99.90;;;;;;5012759;28;20216;-67
2024/01/22 09:06:05;;;;;;;4.60;1.40;;;10.30;99.90;;;;;;5011515;28;20432;-67
2024/01/22 09:08:33;;;;;;;2.58;1.33;;;10.40;99.90;;;;;;5008473;28;20802;-67
2024/01/22 09:11:00;;;;;;;4.45;2.08;;;10.40;99.90;;;;;;5009933;28;20822;-67
2024/01/22 09:13:27;;;;;;;2.38;1.30;;;10.40;99.90;;;;;;5012903;28;20228;-67
2024/01/22 09:15:54;;;;;;;1.98;1.83;;;;;;;;;;5017295;28;20198;-67
2024/01/22 09:18:23;;;;;;;4.53;1.35;;;10.30;99.90;;;;;;4991390;28;20737;-67
2024/01/22 09:20:51;;;;;;;6.70;1.75;;;10.30;99.90;;;;;;5017138;28;20226;-67
2024/01/22 09:23:18;;;;;;;3.70;1.58;;;10.30;99.90;;;;;;4990499;28;20201;-67
2024/01/22 09:25:45;;;;;;;4.32;1.15;;;10.40;99.90;;;;;;4991290;28;20225;-67
2024/01/22 09:28:14;;;;;;;3.03;1.30;;;10.40;99.90;;;;;;4985300;28;20210;-67
2024/01/22 09:30:41;;;;;;;4.38;1.45;;;10.40;99.90;;;;;;5009060;28;20224;-67
2024/01/22 09:33:09;;;;;;;1.85;1.20;;;10.30;99.90;;;;;;4964243;28;20206;-67
2024/01/22 09:35:37;;;;;;;4.32;1.60;;;10.30;99.90;;;;;;5000658;28;20332;-68
2024/01/22 09:38:04;;;;;;;1.75;1.48;;;10.30;99.90;;;;;;4995142;28;20205;-67
2024/01/22 09:40:33;;;;;;;4.07;1.42;;;10.40;99.90;;;;;;4975960;28;20752;-67
2024/01/22 09:43:03;;;;;;;2.63;1.15;;;10.20;99.90;;;;;;4995907;28;20198;-67
2024/01/22 09:45:31;;;;;;;1.48;1.35;;;10.30;99.90;;;;;;4994215;28;20593;-68
2024/01/22 09:47:59;;;;;;;2.53;1.33;;;10.20;99.90;;;;;;4967471;28;20210;-68
2024/01/22 09:50:27;;;;;;;1.70;1.23;;;10.20;99.90;;;;;;4998140;28;20230;-68
2024/01/22 09:52:59;;;;;;;2.47;1.17;;;10.20;99.90;;;;;;4998439;28;20221;-68
2024/01/22 09:55:26;;;;;;;2.47;1.13;;;10.20;99.90;;;;;;4986312;28;20305;-68
2024/01/22 09:57:54;;;;;;;1.20;1.10;;;10.20;99.90;;;;;;4991265;28;20209;-68
2024/01/22 10:00:25;;;;;;;1.52;1.20;;;10.30;99.90;;;;;;4989101;28;20206;-68
2024/01/22 10:02:53;;;;;;;2.40;1.30;;;10.20;99.90;;;;;;4959055;28;20310;-68
2024/01/22 10:05:20;;;;;;;3.13;1.45;;;10.10;99.90;;;;;;4996934;28;20384;-68
2024/01/22 10:07:48;;;;;;;4.63;1.65;;;10.10;99.90;;;;;;4994278;28;21370;-68
2024/01/22 10:10:17;;;;;;;3.45;1.23;;;10.20;99.90;;;;;;4988213;28;20382;-68
2024/01/22 10:13:00;;;;;;;4.20;1.60;;;10.10;99.90;;;;;;4987660;28;20217;-69
2024/01/22 10:15:28;;;;;;;4.57;1.35;;;10.00;99.90;;;;;;4985214;28;20305;-68
2024/01/22 10:18:07;;;;;;;4.40;1.38;;;10.00;99.90;;;;;;4990927;28;20201;-69
2024/01/22 10:20:34;;;;;;;10.05;1.80;;;9.90;99.90;;;;;;5004729;28;20247;-68
2024/01/22 10:23:01;;;;;;;7.38;1.90;;;9.90;99.90;;;;;;5020161;28;20193;-69
2024/01/22 10:25:30;;;;;;;5.85;1.63;;;9.80;99.90;;;;;;5011530;28;20403;-69
2024/01/22 10:28:12;;;;;;;3.80;1.58;;;9.80;99.90;;;;;;4988504;28;20202;-69
2024/01/22 10:30:40;;;;;;;8.45;2.13;;;9.80;99.90;;;;;;5003431;28;20713;-69
2024/01/22 10:33:12;;;;;;;11.90;1.60;;;9.80;99.90;;;;;;5016090;28;20233;-69
2024/01/22 10:35:39;;;;;;;7.93;1.83;;;9.80;99.90;;;;;;4985421;28;20236;-69
2024/01/22 10:38:07;;;;;;;12.20;2.63;;;9.80;99.90;;;;;;5013137;28;20205;-68
2024/01/22 10:40:35;;;;;;;14.10;1.98;;;9.70;99.90;;;;;;5020545;28;20547;-68
2024/01/22 10:43:21;;;;;;;7.75;2.03;;;9.50;99.90;;;;;;5002128;28;20476;-68
2024/01/22 10:45:49;;;;;;;9.55;2.20;;;9.70;99.90;;;;;;5019528;28;20202;-68
2024/01/22 10:48:17;;;;;;;9.27;1.98;;;9.70;99.90;;;;;;5008772;28;20493;-68
2024/01/22 10:50:45;;;;;;;14.68;2.35;;;9.70;99.90;;;;;;4979950;28;20779;-70
2024/01/22 10:53:12;;;;;;;10.50;2.10;;;9.70;99.90;;;;;;5011356;28;20404;-69
2024/01/22 10:55:40;;;;;;;8.90;2.10;;;9.70;99.90;;;;;;5016982;28;20556;-69
2024/01/22 10:58:20;;;;;;;9.32;2.83;;;9.70;99.90;;;;;;5001698;28;21601;-69
2024/01/22 11:00:47;;;;;;;11.48;2.47;;;9.80;99.90;;;;;;5007984;28;20240;-68
2024/01/22 11:03:19;;;;;;;12.43;3.10;;;9.80;99.90;;;;;;5001170;28;20310;-68
2024/01/22 11:05:47;;;;;;;15.57;2.65;;;9.80;99.90;;;;;;5016357;28;20708;-69
2024/01/22 11:08:16;;;;;;;9.45;2.40;;;9.80;99.90;;;;;;4980521;28;20341;-69
2024/01/22 11:10:45;;;;;;;12.98;2.53;;;9.80;99.90;;;;;;5021775;28;20236;-69
2024/01/22 11:13:14;;;;;;;17.88;2.88;;;9.60;99.90;;;;;;4999424;28;20391;-69
2024/01/22 11:15:41;;;;;;;11.73;3.03;;;9.80;99.90;;;;;;5009403;28;20221;-68
2024/01/22 11:18:10;;;;;;;9.65;3.03;;;9.70;99.90;;;;;;5003253;28;20334;-69
2024/01/22 11:20:37;;;;;;;16.48;3.22;;;9.70;99.90;;;;;;5016958;28;20387;-69
2024/01/22 11:23:08;;;;;;;9.52;2.05;;;9.70;99.90;;;;;;4983111;28;20304;-69
2024/01/22 11:25:36;;;;;;;11.40;2.67;;;10.50;99.90;;;;;;5017495;28;20284;-69
2024/01/22 11:28:07;;;;;;;18.05;2.75;;;9.70;99.90;;;;;;5006803;28;20323;-69
2024/01/22 11:30:36;;;;;;;16.58;3.00;;;9.70;99.90;;;;;;5007839;28;20239;-69
2024/01/22 11:33:23;;;;;;;14.10;2.83;;;9.70;99.90;;;;;;5005443;28;20205;-69
2024/01/22 11:35:51;;;;;;;14.30;2.83;;;9.90;99.90;;;;;;5013185;28;20742;-69
2024/01/22 11:38:52;;;;;;;15.80;3.08;;;9.80;99.90;;;;;;4979317;28;20232;-69
2024/01/22 11:41:33;;;;;;;11.57;2.50;;;9.70;99.90;;;;;;5006890;28;20207;-69
2024/01/22 11:44:01;;;;;;;16.02;3.55;;;9.70;99.90;;;;;;5000448;28;20726;-69
2024/01/22 11:46:28;;;;;;;14.15;3.00;;;10.90;99.90;;;;;;5008901;28;20319;-69
2024/01/22 11:48:55;;;;;;;16.05;2.90;;;9.70;99.90;;;;;;5003655;28;20202;-69
2024/01/22 11:51:26;;;;;;;16.27;3.05;;;9.60;99.90;;;;;;5007905;28;20221;-68
2024/01/22 11:53:54;;;;;;;20.92;3.40;;;9.70;99.90;;;;;;4979525;28;20214;-69
2024/01/22 11:56:21;;;;;;;15.85;3.15;;;9.60;99.90;;;;;;5017795;28;20205;-69
2024/01/22 11:58:51;;;;;;;20.95;3.05;;;9.70;99.90;;;;;;4990182;28;20212;-69
2024/01/22 12:01:20;;;;;;;15.48;2.88;;;9.70;99.90;;;;;;4993710;28;20681;-69
2024/01/22 12:03:47;;;;;;;16.23;3.28;;;9.70;99.90;;;;;;4974814;28;20228;-68
2024/01/22 12:06:14;;;;;;;18.10;4.10;;;9.80;99.90;;;;;;4998546;28;20225;-68
2024/01/22 12:08:41;;;;;;;16.02;3.30;;;9.80;99.90;;;;;;4979574;28;20758;-68
2024/01/22 12:11:09;;;;;;;13.45;3.40;;;9.80;99.90;;;;;;5014137;28;20633;-68
2024/01/22 12:13:37;;;;;;;18.67;3.42;;;9.70;99.90;;;;;;4992376;28;23344;-69
2024/01/22 12:16:05;;;;;;;14.73;3.30;;;9.70;99.90;;;;;;5016001;28;20217;-69
2024/01/22 12:18:33;;;;;;;15.25;3.13;;;9.70;99.90;;;;;;4974323;28;20268;-69
2024/01/22 12:21:00;;;;;;;11.30;3.65;;;9.80;99.90;;;;;;5000571;28;20233;-68
2024/01/22 12:23:30;;;;;;;12.33;2.63;;;9.80;99.90;;;;;;4972719;28;20986;-69
2024/01/22 12:25:58;;;;;;;13.50;2.50;;;9.80;99.90;;;;;;5008152;28;20221;-68
2024/01/22 12:28:25;;;;;;;18.33;3.30;;;9.80;99.90;;;;;;4985379;28;20217;-69
2024/01/22 12:31:00;;;;;;;14.90;3.30;;;9.80;99.90;;;;;;5011020;28;20261;-68
2024/01/22 12:33:28;;;;;;;13.88;3.00;;;10.00;99.90;;;;;;4988347;28;20584;-68
2024/01/22 12:36:07;;;;;;;21.52;3.65;;;9.80;99.90;;;;;;4996587;28;20247;-68
2024/01/22 12:38:36;;;;;;;12.27;2.97;;;9.90;99.90;;;;;;4981941;28;20237;-69
2024/01/22 12:41:08;;;;;;;12.68;2.97;;;10.30;99.90;;;;;;5018561;28;20644;-68
2024/01/22 12:43:36;;;;;;;12.23;3.30;;;9.80;99.90;;;;;;5000776;28;20307;-68
2024/01/22 12:46:07;;;;;;;8.07;2.67;;;9.80;99.90;;;;;;4993174;28;20236;-68
2024/01/22 12:48:34;;;;;;;14.05;3.10;;;9.80;99.90;;;;;;4992225;28;20376;-69
2024/01/22 12:51:01;;;;;;;19.13;3.13;;;11.50;99.90;;;;;;4986878;28;20235;-68
2024/01/22 12:53:29;;;;;;;15.48;3.22;;;9.80;99.90;;;;;;5014206;28;20198;-68
2024/01/22 12:55:56;;;;;;;14.70;3.70;;;9.80;99.90;;;;;;4983364;28;20202;-68
2024/01/22 12:58:25;;;;;;;15.40;2.97;;;9.80;99.90;;;;;;5006347;28;20218;-68